Aviation Digital Data Service (ADDS)

Output produced by METARs form (0214 UTC 20 January 2022)
found at http://www.aviationweather.gov/metar/data/
 
METAR text: KGNB 200155Z AUTO 02004KT 10SM OVC060 M08/M11 A3016 RMK AO2 T10771115
Conditions at: KGNB (GRANBY/GRAND CO , CO, US) observed 0155 UTC 20 January 2022
Temperature: -7.7°C (18°F)
Dewpoint: -11.5°C (11°F) [RH = 74%]
Pressure (altimeter): 30.16 inches Hg (1021.4 mb)
Winds: from the NNE (20 degrees) at 5 MPH (4 knots; 2.1 m/s)
Visibility: 10 or more miles (16+ km)
Ceiling: 6000 feet AGL
Clouds: overcast cloud deck at 6000 feet AGL
Weather: automated observation with no human augmentation;
there may or may not be significant weather present at this time

METAR text: KGNB 200135Z AUTO 00000KT 10SM OVC060 M07/M11 A3015 RMK AO2 T10711114
Conditions at: KGNB (GRANBY/GRAND CO , CO, US) observed 0135 UTC 20 January 2022
Temperature: -7.1°C (19°F)
Dewpoint: -11.4°C (11°F) [RH = 71%]
Pressure (altimeter): 30.15 inches Hg (1021.1 mb)
Winds: calm
Visibility: 10 or more miles (16+ km)
Ceiling: 6000 feet AGL
Clouds: overcast cloud deck at 6000 feet AGL
Weather: automated observation with no human augmentation;
there may or may not be significant weather present at this time

METAR text: KGNB 200115Z AUTO 00000KT 10SM SCT050 OVC070 M07/M11 A3014 RMK AO2 T10701114
Conditions at: KGNB (GRANBY/GRAND CO , CO, US) observed 0115 UTC 20 January 2022
Temperature: -7.0°C (19°F)
Dewpoint: -11.4°C (11°F) [RH = 71%]
Pressure (altimeter): 30.14 inches Hg (1020.7 mb)
Winds: calm
Visibility: 10 or more miles (16+ km)
Ceiling: 7000 feet AGL
Clouds: scattered clouds at 5000 feet AGL
overcast cloud deck at 7000 feet AGL
Weather: automated observation with no human augmentation;
there may or may not be significant weather present at this time